Time;durP1;ratioP1;P1;durP2;ratioP2;P2;SDS_P1;SDS_P2;PMS_P1;PMS_P2;Temp;Humidity;BMP_temperature;BMP_pressure;BME280_temperature;BME280_humidity;BME280_pressure;Samples;Min_cycle;Max_cycle;Signal;HPM_P1;HPM_P2
2022/02/09 00:07:58;;;;;;;10.35;5.82;;;;;;;;;;5045773;28;20184;-69
2022/02/09 00:10:08;;;;;;;10.40;5.47;;;;;;;;;;5041820;28;20185;-69
2022/02/09 00:12:43;;;;;;;10.95;5.72;;;;;;;;;;5041416;28;20731;-68
2022/02/09 00:15:22;;;;;;;11.48;6.68;;;;;;;;;;5045375;28;20185;-68
2022/02/09 00:20:53;;;;;;;11.65;5.57;;;;;;;;;;5041178;28;20197;-68
2022/02/09 00:28:50;;;;;;;11.05;6.18;;;;;;;;;;5040500;28;20188;-68
2022/02/09 00:34:23;;;;;;;11.40;6.07;;;;;;;;;;5039074;28;20782;-68
2022/02/09 00:42:12;;;;;;;12.15;6.38;;;;;;;;;;5044398;28;20583;-68
2022/02/09 00:44:59;;;;;;;12.00;5.93;;;;;;;;;;5043411;28;20481;-68
2022/02/09 01:39:11;;;;;;;12.38;6.22;;;;;;;;;;5050011;28;20373;-68
2022/02/09 01:55:36;;;;;;;8.70;5.75;;;;;;;;;;5043492;28;20720;-68
2022/02/09 01:58:01;;;;;;;7.35;5.30;;;;;;;;;;5045107;28;20284;-68
2022/02/09 02:00:27;;;;;;;13.38;5.90;;;;;;;;;;5042772;28;20200;-68
2022/02/09 02:02:54;;;;;;;8.52;5.30;;;;;;;;;;5031431;28;20261;-68
2022/02/09 02:05:19;;;;;;;8.52;5.18;;;;;;;;;;5041321;28;20182;-68
2022/02/09 02:07:53;;;;;;;8.23;5.13;;;;;;;;;;5046119;28;20212;-68
2022/02/09 02:16:00;;;;;;;7.78;5.18;;;;;;;;;;5041128;28;20239;-68
2022/02/09 02:18:11;;;;;;;9.40;4.80;;;;;;;;;;5044760;28;20221;-69
2022/02/09 02:21:26;;;;;;;7.75;4.40;;;;;;;;;;5041511;28;20235;-68
2022/02/09 02:23:45;;;;;;;8.70;5.18;;;;;;;;;;5051253;28;20197;-68
2022/02/09 02:29:15;;;;;;;8.25;4.60;;;;;;;;;;5040311;28;20279;-68
2022/02/09 03:12:15;;;;;;;8.10;3.97;;;;;;;;;;5049572;28;20184;-69
2022/02/09 03:14:59;;;;;;;6.18;3.92;;;;;;;;;;5042447;28;20272;-68
2022/02/09 03:17:33;;;;;;;6.78;3.70;;;;;;;;;;5041535;28;20217;-69
2022/02/09 03:20:08;;;;;;;6.10;3.97;;;;;;;;;;5041373;28;20197;-68
2022/02/09 03:22:55;;;;;;;9.57;4.28;;;;;;;;;;5039422;28;20191;-69
2022/02/09 03:49:52;;;;;;;13.02;5.88;;;;;;;;;;5043730;28;20185;-68
2022/02/09 03:55:08;;;;;;;8.60;6.25;;;;;;;;;;5046118;28;20688;-68
2022/02/09 03:57:45;;;;;;;7.85;6.40;;;;;;;;;;5042786;28;20216;-67
2022/02/09 04:00:15;;;;;;;9.30;6.72;;;;;;;;;;5041344;28;20201;-68
2022/02/09 04:02:46;;;;;;;10.50;6.30;;;;;;;;;;5033872;28;20233;-69
2022/02/09 04:05:13;;;;;;;9.52;7.38;;;;;;;;;;5041640;28;20204;-68
2022/02/09 04:07:38;;;;;;;11.05;7.07;;;;;;;;;;5033278;28;20185;-68
2022/02/09 04:10:06;;;;;;;11.00;7.53;;;;;;;;;;5041486;28;20645;-68
2022/02/09 04:12:39;;;;;;;8.60;6.90;;;;;;;;;;5042991;28;20277;-68
2022/02/09 04:15:21;;;;;;;10.38;7.35;;;;;;;;;;5041650;28;20251;-69
2022/02/09 04:22:23;;;;;;;11.95;8.57;;;;;;;;;;5043752;28;20263;-68
2022/02/09 04:36:58;;;;;;;13.68;8.80;;;;;;;;;;5048143;28;20274;-69
2022/02/09 04:39:32;;;;;;;11.50;8.48;;;;;;;;;;5045570;28;20189;-68
2022/02/09 04:44:53;;;;;;;12.55;9.02;;;;;;;;;;5045541;28;20251;-68
2022/02/09 04:57:55;;;;;;;13.00;9.65;;;;;;;;;;5046996;28;20224;-68
2022/02/09 05:00:29;;;;;;;13.52;9.93;;;;;;;;;;5051181;28;20173;-68
2022/02/09 05:20:02;;;;;;;13.15;9.45;;;;;;;;;;5045669;28;20220;-68
2022/02/09 05:24:43;;;;;;;12.80;9.45;;;;;;;;;;5044551;28;20601;-67
2022/02/09 05:27:33;;;;;;;12.50;9.05;;;;;;;;;;5041386;28;20188;-68
2022/02/09 05:30:01;;;;;;;14.65;9.70;;;;;;;;;;5041350;28;20186;-68
2022/02/09 05:32:27;;;;;;;13.35;9.27;;;;;;;;;;5042938;28;20193;-67
2022/02/09 05:34:52;;;;;;;11.05;8.77;;;;;;;;;;5042665;28;20714;-69
2022/02/09 05:37:17;;;;;;;12.05;8.00;;;;;;;;;;5043720;28;20201;-68
2022/02/09 05:39:43;;;;;;;10.23;8.05;;;;;;;;;;5043087;28;20696;-68
2022/02/09 05:42:09;;;;;;;10.50;7.95;;;;;;;;;;5042129;28;20256;-68
2022/02/09 05:44:35;;;;;;;11.13;7.88;;;;;;;;;;5040438;28;20224;-68
2022/02/09 05:49:49;;;;;;;11.40;7.32;;;;;;;;;;5043282;28;20258;-68
2022/02/09 05:52:26;;;;;;;11.60;8.02;;;;;;;;;;5047529;28;20223;-69
2022/02/09 05:59:45;;;;;;;10.05;7.03;;;;;;;;;;5044371;28;20197;-68
2022/02/09 06:02:11;;;;;;;9.98;7.70;;;;;;;;;;5046491;28;20186;-68
2022/02/09 06:04:38;;;;;;;10.65;7.63;;;;;;;;;;5042522;28;20244;-69
2022/02/09 06:07:06;;;;;;;10.15;7.40;;;;;;;;;;5043785;28;20177;-67
2022/02/09 06:09:32;;;;;;;10.25;7.10;;;;;;;;;;5040294;28;20589;-68
2022/02/09 06:12:13;;;;;;;8.73;6.35;;;;;;;;;;5036891;28;20172;-68
2022/02/09 06:19:50;;;;;;;10.18;7.13;;;;;;;;;;5045381;28;20190;-68
2022/02/09 06:22:15;;;;;;;11.55;7.47;;;;;;;;;;5046003;28;20200;-68
2022/02/09 06:24:42;;;;;;;9.73;6.95;;;;;;;;;;5055715;28;20176;-68
2022/02/09 06:27:12;;;;;;;9.07;7.03;;;;;;;;;;5048456;28;20193;-68
2022/02/09 06:29:39;;;;;;;9.85;7.43;;;;;;;;;;5041837;28;20406;-68
2022/02/09 06:32:09;;;;;;;13.73;7.80;;;;;;;;;;5043257;28;20276;-67
2022/02/09 06:34:39;;;;;;;13.98;7.95;;;;;;;;;;5052542;28;20201;-68
2022/02/09 06:37:16;;;;;;;9.77;7.38;;;;;;;;;;5042977;28;20220;-69
2022/02/09 06:39:45;;;;;;;11.15;7.78;;;;;;;;;;5049588;28;20211;-68
2022/02/09 06:42:11;;;;;;;13.77;8.52;;;;;;;;;;5046616;28;20703;-68
2022/02/09 06:44:36;;;;;;;12.82;9.20;;;;;;;;;;5053093;28;20316;-68
2022/02/09 06:47:02;;;;;;;13.82;9.00;;;;;;;;;;5044249;28;20260;-68
2022/02/09 06:49:30;;;;;;;12.23;8.95;;;;;;;;;;5043103;28;20189;-69
2022/02/09 06:51:55;;;;;;;13.05;9.38;;;;;;;;;;5039839;28;20538;-68
2022/02/09 06:54:32;;;;;;;14.00;9.07;;;;;;;;;;5044937;28;20189;-68
2022/02/09 06:57:05;;;;;;;13.57;9.27;;;;;;;;;;5047657;28;20268;-68
2022/02/09 06:59:31;;;;;;;13.52;9.55;;;;;;;;;;5039036;28;20600;-68
2022/02/09 07:01:59;;;;;;;13.38;8.85;;;;;;;;;;5038972;28;20261;-68
2022/02/09 07:04:26;;;;;;;15.73;8.93;;;;;;;;;;5042248;28;20638;-68
2022/02/09 07:06:52;;;;;;;17.55;10.38;;;;;;;;;;5037719;28;20188;-68
2022/02/09 07:09:17;;;;;;;14.90;9.77;;;;;;;;;;5042368;28;20186;-68
2022/02/09 07:11:42;;;;;;;15.45;10.02;;;;;;;;;;5037841;28;20182;-68
2022/02/09 07:14:09;;;;;;;16.25;10.38;;;;;;;;;;5041407;28;20188;-68
2022/02/09 07:16:35;;;;;;;16.20;10.45;;;;;;;;;;5046910;28;20219;-68
2022/02/09 07:19:06;;;;;;;15.27;10.05;;;;;;;;;;5042691;28;20557;-68
2022/02/09 07:21:32;;;;;;;18.40;10.10;;;;;;;;;;5037269;28;20210;-69
2022/02/09 07:23:59;;;;;;;17.27;11.30;;;;;;;;;;5044510;28;20594;-69
2022/02/09 07:26:48;;;;;;;18.45;10.85;;;;;;;;;;5043207;28;20238;-68
2022/02/09 07:29:14;;;;;;;18.77;10.52;;;;;;;;;;5042171;28;20235;-68
2022/02/09 07:31:40;;;;;;;16.75;10.95;;;;;;;;;;5044513;28;20215;-68
2022/02/09 07:34:05;;;;;;;16.13;10.65;;;;;;;;;;5041492;28;20204;-68
2022/02/09 07:36:35;;;;;;;18.48;11.32;;;;;;;;;;5041544;28;20190;-68
2022/02/09 07:39:03;;;;;;;14.77;10.27;;;;;;;;;;5047578;28;20280;-68
2022/02/09 07:41:29;;;;;;;18.25;11.18;;;;;;;;;;5042974;28;20181;-68
2022/02/09 07:46:38;;;;;;;17.20;11.20;;;;;;;;;;5038945;28;20201;-68
2022/02/09 07:51:42;;;;;;;17.33;11.20;;;;;;;;;;5046789;28;20193;-69
2022/02/09 07:54:10;;;;;;;18.92;11.57;;;;;;;;;;5033758;28;20189;-68
2022/02/09 07:56:37;;;;;;;18.58;10.85;;;;;;;;;;5046285;28;20185;-69
2022/02/09 07:59:05;;;;;;;18.08;11.48;;;;;;;;;;5046585;28;20209;-69
2022/02/09 08:01:30;;;;;;;16.58;10.98;;;;;;;;;;5046554;28;20205;-69
2022/02/09 08:03:57;;;;;;;19.88;11.55;;;;;;;;;;5044128;28;20260;-69
2022/02/09 08:06:25;;;;;;;19.10;11.70;;;;;;;;;;5050475;28;20173;-69
2022/02/09 08:08:58;;;;;;;17.38;11.45;;;;;;;;;;5046008;28;20193;-68
2022/02/09 08:11:29;;;;;;;19.20;11.85;;;;;;;;;;5053064;28;20322;-68
2022/02/09 08:27:36;;;;;;;16.92;11.43;;;;;;;;;;5047663;28;20201;-68
2022/02/09 08:32:50;;;;;;;19.08;11.27;;;;;;;;;;5046624;28;20201;-68
2022/02/09 08:35:16;;;;;;;16.75;12.40;;;;;;;;;;5048852;28;20663;-68
2022/02/09 08:37:41;;;;;;;17.88;11.57;;;;;;;;;;5047327;28;20608;-68
2022/02/09 08:40:09;;;;;;;17.70;11.95;;;;;;;;;;5050209;28;20169;-68
2022/02/09 08:42:37;;;;;;;16.55;11.75;;;;;;;;;;5044601;28;20185;-68
2022/02/09 08:45:05;;;;;;;17.42;12.10;;;;;;;;;;5049350;28;20173;-68
2022/02/09 08:47:30;;;;;;;16.58;12.38;;;;;;;;;;5047556;28;20649;-68
2022/02/09 08:49:56;;;;;;;18.40;12.90;;;;;;;;;;5047626;28;20185;-68
2022/02/09 08:52:21;;;;;;;16.90;12.20;;;;;;;;;;5044713;28;20690;-68
2022/02/09 08:54:50;;;;;;;19.10;13.15;;;;;;;;;;5048097;28;20661;-68
2022/02/09 08:57:15;;;;;;;16.17;11.60;;;;;;;;;;5043875;28;20844;-68
2022/02/09 08:59:41;;;;;;;17.70;12.15;;;;;;;;;;5051159;28;20391;-68
2022/02/09 09:02:10;;;;;;;17.95;12.77;;;;;;;;;;5044508;28;20268;-68
2022/02/09 09:04:41;;;;;;;18.00;12.05;;;;;;;;;;5047474;28;20324;-69
2022/02/09 09:07:14;;;;;;;15.27;11.15;;;;;;;;;;5044419;28;20272;-68
2022/02/09 09:09:56;;;;;;;15.98;11.82;;;;;;;;;;5050633;28;20193;-68
2022/02/09 09:17:47;;;;;;;14.73;10.82;;;;;;;;;;5041449;28;20206;-68
2022/02/09 09:31:24;;;;;;;12.07;9.02;;;;;;;;;;5043207;28;20279;-67
2022/02/09 09:59:48;;;;;;;13.27;8.93;;;;;;;;;;5042908;28;20220;-68
2022/02/09 10:02:07;;;;;;;11.75;9.00;;;;;;;;;;5042826;28;20680;-68
2022/02/09 10:35:08;;;;;;;11.23;8.63;;;;;;;;;;5057675;28;20652;-68
2022/02/09 10:37:33;;;;;;;13.20;9.93;;;;;;;;;;5048519;28;20204;-69
2022/02/09 10:40:09;;;;;;;11.27;8.82;;;;;;;;;;5056400;28;20265;-69
2022/02/09 10:42:54;;;;;;;11.00;8.95;;;;;;;;;;5041648;28;20173;-69
2022/02/09 10:45:47;;;;;;;10.73;8.00;;;;;;;;;;5046012;28;20556;-69
2022/02/09 10:48:37;;;;;;;9.55;8.40;;;;;;;;;;5046501;28;20206;-69
2022/02/09 10:52:08;;;;;;;10.80;8.40;;;;;;;;;;5045458;28;20621;-69
2022/02/09 10:54:19;;;;;;;10.98;7.65;;;;;;;;;;5047653;28;20486;-69
2022/02/09 10:56:49;;;;;;;9.50;8.23;;;;;;;;;;5044451;28;20281;-69
2022/02/09 10:59:16;;;;;;;9.30;7.90;;;;;;;;;;5049756;28;20217;-69
2022/02/09 11:01:43;;;;;;;9.20;7.85;;;;;;;;;;5048981;28;20264;-69
2022/02/09 11:04:09;;;;;;;11.60;7.30;;;;;;;;;;5048701;28;20221;-69
2022/02/09 11:06:40;;;;;;;8.55;7.18;;;;;;;;;;5061453;28;20181;-68
2022/02/09 11:09:09;;;;;;;9.57;7.10;;;;;;;;;;5042712;28;20326;-68
2022/02/09 11:11:39;;;;;;;8.93;7.45;;;;;;;;;;5060725;28;20196;-69
2022/02/09 11:14:06;;;;;;;10.45;7.35;;;;;;;;;;5045981;28;20185;-69
2022/02/09 11:16:34;;;;;;;9.63;7.32;;;;;;;;;;5047349;28;20225;-68
2022/02/09 11:19:00;;;;;;;8.07;6.93;;;;;;;;;;5047987;28;20787;-69
2022/02/09 11:21:29;;;;;;;7.57;6.75;;;;;;;;;;5054316;28;20680;-69
2022/02/09 11:24:05;;;;;;;7.63;6.75;;;;;;;;;;5053347;28;20181;-69
2022/02/09 11:27:02;;;;;;;8.43;6.28;;;;;;;;;;5051746;28;20189;-69
2022/02/09 11:29:44;;;;;;;8.93;7.18;;;;;;;;;;5048770;28;20667;-68
2022/02/09 11:32:20;;;;;;;8.50;6.75;;;;;;;;;;5041363;28;20704;-69
2022/02/09 11:34:49;;;;;;;8.13;6.05;;;;;;;;;;5052673;28;20530;-69
2022/02/09 11:37:24;;;;;;;8.10;6.80;;;;;;;;;;5043084;28;20189;-69
2022/02/09 11:39:52;;;;;;;9.30;7.38;;;;;;;;;;5049595;28;20195;-68
2022/02/09 11:42:26;;;;;;;9.50;7.30;;;;;;;;;;5046627;28;20644;-68
2022/02/09 11:45:21;;;;;;;9.30;7.13;;;;;;;;;;5045934;28;20188;-69
2022/02/09 11:56:36;;;;;;;9.32;7.65;;;;;;;;;;5042480;28;20191;-69
2022/02/09 11:59:32;;;;;;;7.82;6.30;;;;;;;;;;5047668;28;20240;-68
2022/02/09 12:10:19;;;;;;;10.50;7.25;;;;;;;;;;5041558;28;20193;-68
2022/02/09 12:12:59;;;;;;;8.43;6.90;;;;;;;;;;5037179;28;20211;-67
2022/02/09 12:15:47;;;;;;;8.77;7.07;;;;;;;;;;5045276;28;20252;-68
2022/02/09 12:18:27;;;;;;;8.02;7.03;;;;;;;;;;5039470;28;20304;-68
2022/02/09 12:21:15;;;;;;;10.38;7.00;;;;;;;;;;5040644;28;20240;-68
2022/02/09 12:23:44;;;;;;;7.97;6.38;;;;;;;;;;5042124;28;20304;-68
2022/02/09 12:26:12;;;;;;;9.73;7.15;;;;;;;;;;5043088;28;20551;-68
2022/02/09 12:28:39;;;;;;;9.38;6.47;;;;;;;;;;5041324;28;20182;-68
2022/02/09 12:31:15;;;;;;;7.32;6.45;;;;;;;;;;5044961;28;20280;-68
2022/02/09 12:33:47;;;;;;;10.23;7.15;;;;;;;;;;5046738;28;20189;-68
2022/02/09 12:36:21;;;;;;;8.70;6.47;;;;;;;;;;5050673;28;20284;-68
2022/02/09 12:38:48;;;;;;;8.93;7.00;;;;;;;;;;5041735;28;20391;-68
2022/02/09 12:41:22;;;;;;;8.93;6.95;;;;;;;;;;5040520;28;20514;-68
2022/02/09 12:43:49;;;;;;;8.70;7.03;;;;;;;;;;5045002;28;20197;-68
2022/02/09 12:46:16;;;;;;;8.70;6.75;;;;;;;;;;5046209;28;20204;-68
2022/02/09 12:48:41;;;;;;;8.45;7.00;;;;;;;;;;5048386;28;20185;-68
2022/02/09 12:51:06;;;;;;;10.75;8.15;;;;;;;;;;5040174;28;20255;-68
2022/02/09 12:53:32;;;;;;;12.10;7.93;;;;;;;;;;5041919;28;20606;-68
2022/02/09 12:55:57;;;;;;;14.27;7.40;;;;;;;;;;5045658;28;20186;-68
2022/02/09 12:58:23;;;;;;;9.70;7.30;;;;;;;;;;5049882;28;20197;-68
2022/02/09 13:00:49;;;;;;;11.57;7.50;;;;;;;;;;5045318;28;20182;-68
2022/02/09 13:03:22;;;;;;;11.05;7.80;;;;;;;;;;5048864;28;20584;-68
2022/02/09 13:05:56;;;;;;;9.88;7.53;;;;;;;;;;5047204;28;20668;-69
2022/02/09 13:08:30;;;;;;;9.45;6.95;;;;;;;;;;5048362;28;20549;-69
2022/02/09 13:11:25;;;;;;;11.60;7.55;;;;;;;;;;5041736;28;20196;-69
2022/02/09 13:13:56;;;;;;;9.55;7.00;;;;;;;;;;5043287;28;20656;-68
2022/02/09 13:22:31;;;;;;;8.27;7.22;;;;;;;;;;5051869;28;20192;-68
2022/02/09 14:07:02;;;;;;;9.40;6.97;;;;;;;;;;5057430;28;20180;-68
2022/02/09 14:12:29;;;;;;;9.35;7.30;;;;;;;;;;5051991;28;20659;-68
2022/02/09 14:47:45;;;;;;;11.85;7.68;;;;;;;;;;5041763;28;20200;-67
2022/02/09 14:50:54;;;;;;;8.95;7.45;;;;;;;;;;5036810;28;20564;-69
2022/02/09 14:53:11;;;;;;;8.77;7.40;;;;;;;;;;5042754;28;20224;-68
2022/02/09 14:58:12;;;;;;;11.25;7.75;;;;;;;;;;5045277;28;20241;-68
2022/02/09 15:00:54;;;;;;;10.93;8.00;;;;;;;;;;5038827;28;20736;-68
2022/02/09 15:03:42;;;;;;;10.07;7.22;;;;;;;;;;5045448;28;20256;-68
2022/02/09 15:07:00;;;;;;;10.85;8.20;;;;;;;;;;5042131;28;20864;-68
2022/02/09 15:09:08;;;;;;;9.38;7.70;;;;;;;;;;5047226;28;20556;-68
2022/02/09 15:14:13;;;;;;;13.90;8.52;;;;;;;;;;5041789;28;20221;-68
2022/02/09 15:24:14;;;;;;;12.10;9.02;;;;;;;;;;5043607;28;20209;-68
2022/02/09 15:26:41;;;;;;;11.10;9.13;;;;;;;;;;5039893;28;20186;-69
2022/02/09 15:29:07;;;;;;;11.48;8.55;;;;;;;;;;5041052;28;20269;-69
2022/02/09 15:34:43;;;;;;;12.10;8.45;;;;;;;;;;5043553;28;20247;-68
2022/02/09 15:37:34;;;;;;;12.68;8.85;;;;;;;;;;5049917;28;20276;-68
2022/02/09 15:40:08;;;;;;;11.52;8.23;;;;;;;;;;5039139;28;20186;-69
2022/02/09 15:43:37;;;;;;;12.02;9.18;;;;;;;;;;5046244;28;20239;-69
2022/02/09 16:10:02;;;;;;;15.75;11.32;;;;;;;;;;5044592;28;20242;-67
2022/02/09 16:23:45;;;;;;;17.15;12.05;;;;;;;;;;5054911;28;20703;-68
2022/02/09 16:34:50;;;;;;;20.00;13.30;;;;;;;;;;5047699;28;20239;-68
2022/02/09 16:45:16;;;;;;;22.15;14.50;;;;;;;;;;5038304;28;20230;-69
2022/02/09 16:50:14;;;;;;;26.63;15.15;;;;;;;;;;5046131;28;20231;-68
2022/02/09 16:52:45;;;;;;;25.75;16.23;;;;;;;;;;5044522;28;20193;-69
2022/02/09 17:19:51;;;;;;;28.93;17.03;;;;;;;;;;5052149;28;20364;-68
2022/02/09 17:22:16;;;;;;;28.00;17.60;;;;;;;;;;5044880;28;20189;-68
2022/02/09 17:24:42;;;;;;;29.97;17.57;;;;;;;;;;5039783;28;20567;-69
2022/02/09 17:27:10;;;;;;;29.95;17.60;;;;;;;;;;5043371;28;20194;-69
2022/02/09 17:34:58;;;;;;;33.25;17.88;;;;;;;;;;5047777;28;20695;-69
2022/02/09 17:38:30;;;;;;;27.17;16.88;;;;;;;;;;5043805;28;20190;-69
2022/02/09 17:54:04;;;;;;;24.80;16.38;;;;;;;;;;5038995;28;20320;-68
2022/02/09 17:56:36;;;;;;;27.85;17.33;;;;;;;;;;5042736;28;20185;-68
2022/02/09 17:59:03;;;;;;;26.67;17.13;;;;;;;;;;5041975;28;20235;-69
2022/02/09 18:01:28;;;;;;;29.88;17.42;;;;;;;;;;5043713;28;20181;-69
2022/02/09 18:03:55;;;;;;;27.70;17.55;;;;;;;;;;5044809;28;20244;-69
2022/02/09 18:06:28;;;;;;;23.50;15.68;;;;;;;;;;5039282;28;20538;-69
2022/02/09 18:09:04;;;;;;;24.73;16.20;;;;;;;;;;5042857;28;20196;-68
2022/02/09 18:43:40;;;;;;;34.13;19.30;;;;;;;;;;5046512;28;20565;-69
2022/02/09 18:59:32;;;;;;;32.28;19.27;;;;;;;;;;5054687;28;20213;-68
2022/02/09 19:02:11;;;;;;;33.72;19.45;;;;;;;;;;5045111;28;20200;-69
2022/02/09 19:04:44;;;;;;;32.25;19.98;;;;;;;;;;5044041;28;20752;-68
2022/02/09 19:07:32;;;;;;;36.00;20.42;;;;;;;;;;5047070;28;20172;-69
2022/02/09 19:18:08;;;;;;;32.42;19.98;;;;;;;;;;5049311;28;20209;-68
2022/02/09 19:20:56;;;;;;;32.35;18.90;;;;;;;;;;5042537;28;20243;-69
2022/02/09 19:26:43;;;;;;;31.85;19.10;;;;;;;;;;5049334;28;20268;-69
2022/02/09 19:47:57;;;;;;;38.50;21.63;;;;;;;;;;5043713;28;20201;-69
2022/02/09 19:50:45;;;;;;;38.20;21.98;;;;;;;;;;5040002;28;20189;-69
2022/02/09 19:56:06;;;;;;;42.65;22.95;;;;;;;;;;5042293;28;20306;-69
2022/02/09 19:58:43;;;;;;;45.97;23.95;;;;;;;;;;5046606;28;20201;-69
2022/02/09 20:01:13;;;;;;;39.97;23.50;;;;;;;;;;5042647;28;20185;-69
2022/02/09 20:03:38;;;;;;;39.80;22.95;;;;;;;;;;5045288;28;20225;-68
2022/02/09 20:06:07;;;;;;;40.50;23.15;;;;;;;;;;5045400;28;20399;-69
2022/02/09 20:08:35;;;;;;;39.08;22.50;;;;;;;;;;5048451;28;20197;-69
2022/02/09 20:11:01;;;;;;;41.67;23.75;;;;;;;;;;5043338;28;20194;-69
2022/02/09 20:13:26;;;;;;;38.75;22.58;;;;;;;;;;4344962;28;10000874;-69
2022/02/09 20:15:51;;;;;;;40.33;22.63;;;;;;;;;;5043918;28;20220;-69
2022/02/09 20:18:17;;;;;;;44.08;23.90;;;;;;;;;;5039041;28;20295;-69
2022/02/09 20:20:42;;;;;;;38.58;22.27;;;;;;;;;;5040251;28;20251;-69
2022/02/09 20:23:10;;;;;;;45.22;22.77;;;;;;;;;;5039627;28;20193;-68
2022/02/09 20:25:35;;;;;;;42.05;23.50;;;;;;;;;;5037918;28;20209;-68
2022/02/09 20:28:01;;;;;;;41.45;23.02;;;;;;;;;;5045484;28;20259;-68
2022/02/09 20:30:33;;;;;;;40.35;23.30;;;;;;;;;;5042313;28;20208;-68
2022/02/09 20:33:03;;;;;;;44.95;23.38;;;;;;;;;;5037216;28;20236;-69
2022/02/09 20:35:28;;;;;;;40.75;22.55;;;;;;;;;;5039682;28;20197;-68
2022/02/09 20:37:55;;;;;;;46.67;24.08;;;;;;;;;;5037672;28;20290;-68
2022/02/09 20:40:27;;;;;;;43.00;24.30;;;;;;;;;;5049035;28;20547;-68
2022/02/09 20:42:58;;;;;;;42.17;23.60;;;;;;;;;;5038958;28;20201;-68
2022/02/09 20:48:01;;;;;;;44.33;23.00;;;;;;;;;;5039808;28;20185;-69
2022/02/09 20:50:28;;;;;;;41.05;23.40;;;;;;;;;;5043492;28;20197;-69
2022/02/09 20:52:53;;;;;;;45.60;24.02;;;;;;;;;;5034887;28;20186;-68
2022/02/09 20:55:19;;;;;;;46.78;24.73;;;;;;;;;;5045500;28;20239;-68
2022/02/09 20:57:46;;;;;;;46.72;23.95;;;;;;;;;;5038818;28;20193;-68
2022/02/09 21:00:19;;;;;;;44.35;23.38;;;;;;;;;;5036820;28;20190;-69
2022/02/09 21:02:56;;;;;;;41.80;22.95;;;;;;;;;;5035507;28;20182;-69
2022/02/09 21:05:38;;;;;;;42.67;23.48;;;;;;;;;;5042790;28;20718;-69
2022/02/09 21:10:47;;;;;;;42.53;22.17;;;;;;;;;;5037853;28;20295;-68
2022/02/09 21:13:27;;;;;;;42.90;22.55;;;;;;;;;;5033076;28;20243;-69
2022/02/09 21:16:09;;;;;;;41.30;22.25;;;;;;;;;;5041405;28;20213;-69
2022/02/09 21:30:42;;;;;;;44.55;23.13;;;;;;;;;;5045820;28;20311;-68
2022/02/09 21:32:31;;;;;;;47.67;24.35;;;;;;;;;;5039321;28;20217;-69
2022/02/09 21:44:24;;;;;;;40.65;22.08;;;;;;;;;;5043649;28;20585;-68
2022/02/09 21:54:27;;;;;;;44.13;21.67;;;;;;;;;;5052434;28;20606;-68
2022/02/09 21:57:01;;;;;;;39.70;20.83;;;;;;;;;;5041216;28;20190;-69
2022/02/09 22:24:15;;;;;;;45.22;22.55;;;;;;;;;;5052258;28;20193;-69
2022/02/09 22:29:04;;;;;;;50.30;24.20;;;;;;;;;;5048345;28;20780;-70
2022/02/09 22:31:56;;;;;;;49.83;24.60;;;;;;;;;;5044929;28;20291;-69
2022/02/09 22:50:52;;;;;;;51.60;25.40;;;;;;;;;;5056351;28;20249;-69
2022/02/09 22:56:02;;;;;;;54.22;25.25;;;;;;;;;;5051308;28;20208;-68
2022/02/09 22:58:27;;;;;;;55.95;25.58;;;;;;;;;;5055668;28;20279;-68
2022/02/09 23:03:55;;;;;;;57.17;25.65;;;;;;;;;;5047147;28;20710;-68
2022/02/09 23:06:46;;;;;;;54.55;23.85;;;;;;;;;;5044186;28;20255;-69
2022/02/09 23:12:12;;;;;;;53.70;24.37;;;;;;;;;;5044362;28;20188;-68
2022/02/09 23:55:25;;;;;;;42.58;20.90;;;;;;;;;;5041785;28;20198;-68
